Time;durP1;ratioP1;P1;durP2;ratioP2;P2;SDS_P1;SDS_P2;PMS_P1;PMS_P2;Temp;Humidity;BMP_temperature;BMP_pressure;BME280_temperature;BME280_humidity;BME280_pressure;Samples;Min_cycle;Max_cycle;Signal;HPM_P1;HPM_P2
2022/06/18 00:00:57;;;;;;;7.70;4.82;;;22.10;99.90;;;;;;5074250;28;20451;-70
2022/06/18 00:03:25;;;;;;;10.27;4.50;;;22.10;99.90;;;;;;5108256;28;20067;-70
2022/06/18 00:05:52;;;;;;;;;;;22.10;99.90;;;;;;5084113;28;20048;-70
2022/06/18 00:08:24;;;;;;;9.95;4.85;;;22.00;99.90;;;;;;5079030;28;20022;-71
2022/06/18 00:13:39;;;;;;;8.55;4.65;;;22.00;99.90;;;;;;5104995;28;20100;-70
2022/06/18 00:13:45;;;;;;;8.70;4.68;;;22.00;99.90;;;;;;5104044;28;20082;-69
2022/06/18 00:16:19;;;;;;;8.50;4.47;;;22.00;99.90;;;;;;5071604;28;20148;-70
2022/06/18 00:18:45;;;;;;;7.55;4.40;;;22.00;99.90;;;;;;5102874;28;20048;-70
2022/06/18 00:21:18;;;;;;;8.23;4.60;;;22.00;99.90;;;;;;5080802;28;20039;-70
2022/06/18 00:23:44;;;;;;;7.88;4.72;;;22.00;99.90;;;;;;5091293;28;20046;-70
2022/06/18 00:26:10;;;;;;;7.10;4.30;;;21.90;99.90;;;;;;5077952;28;20394;-70
2022/06/18 00:28:36;;;;;;;6.65;4.45;;;21.90;99.90;;;;;;5081431;28;20398;-70
2022/06/18 00:31:03;;;;;;;7.18;4.32;;;21.90;99.90;;;;;;5089434;28;20056;-70
2022/06/18 00:33:29;;;;;;;9.23;4.68;;;21.80;99.90;;;;;;5091292;28;20048;-70
2022/06/18 00:35:59;;;;;;;7.93;4.93;;;21.80;99.90;;;;;;5108392;28;20046;-70
2022/06/18 00:38:28;;;;;;;11.52;5.03;;;21.80;99.90;;;;;;5108226;28;20036;-70
2022/06/18 00:40:55;;;;;;;5.78;4.38;;;21.70;99.90;;;;;;5104197;28;20562;-70
2022/06/18 00:43:28;;;;;;;7.65;4.78;;;21.70;99.90;;;;;;5098337;28;20043;-70
2022/06/18 00:46:03;;;;;;;6.57;4.78;;;21.70;99.90;;;;;;5105865;28;20039;-70
2022/06/18 00:48:49;;;;;;;9.40;4.70;;;21.60;99.90;;;;;;5089125;28;20039;-70
2022/06/18 00:51:38;;;;;;;10.10;5.50;;;21.60;99.90;;;;;;5094182;28;20051;-70
2022/06/18 00:54:36;;;;;;;9.57;4.88;;;21.50;99.90;;;;;;5094798;28;20114;-70
2022/06/18 00:57:11;;;;;;;8.02;5.00;;;21.50;99.90;;;;;;5106463;28;20087;-71
2022/06/18 00:59:54;;;;;;;9.48;4.63;;;21.40;99.90;;;;;;5103480;28;20035;-70
2022/06/18 01:02:28;;;;;;;8.43;4.55;;;21.40;99.90;;;;;;5080669;28;20043;-70
2022/06/18 01:04:54;;;;;;;8.02;4.90;;;21.40;99.90;;;;;;5078347;28;20090;-70
2022/06/18 01:07:38;;;;;;;6.70;4.72;;;21.40;99.90;;;;;;5098886;28;20094;-70
2022/06/18 01:10:12;;;;;;;8.23;4.55;;;21.30;99.90;;;;;;5104533;28;20135;-70
2022/06/18 01:12:38;;;;;;;6.63;4.50;;;21.30;99.90;;;;;;5102738;28;20106;-70
2022/06/18 01:15:07;;;;;;;9.23;4.32;;;21.30;99.90;;;;;;5108897;28;20118;-70
2022/06/18 01:17:35;;;;;;;6.90;4.65;;;21.30;99.90;;;;;;5087436;28;20056;-70
2022/06/18 01:20:05;;;;;;;7.75;4.50;;;21.30;99.90;;;;;;5107108;28;20050;-70
2022/06/18 01:22:55;;;;;;;6.72;4.60;;;21.20;99.90;;;;;;5086608;28;20512;-70
2022/06/18 01:25:23;;;;;;;7.00;4.90;;;21.30;99.90;;;;;;5074646;28;20410;-71
2022/06/18 01:27:53;;;;;;;9.68;4.88;;;21.20;99.90;;;;;;5084916;28;20035;-70
2022/06/18 01:30:22;;;;;;;9.05;5.28;;;21.20;99.90;;;;;;5087484;28;20051;-70
2022/06/18 01:32:51;;;;;;;9.98;5.43;;;21.20;99.90;;;;;;5079083;28;20425;-70
2022/06/18 01:35:18;;;;;;;8.68;4.55;;;21.20;99.90;;;;;;5100969;28;20070;-70
2022/06/18 01:37:45;;;;;;;8.50;4.80;;;21.20;99.90;;;;;;5093747;28;20044;-70
2022/06/18 01:40:15;;;;;;;10.65;5.18;;;21.10;99.90;;;;;;5098536;28;20126;-70
2022/06/18 01:42:44;;;;;;;9.55;5.25;;;21.10;99.90;;;;;;5102529;28;20088;-70
2022/06/18 01:45:16;;;;;;;6.57;4.85;;;21.20;99.90;;;;;;5106148;28;20442;-70
2022/06/18 01:47:57;;;;;;;8.50;4.95;;;21.20;99.90;;;;;;5085557;28;20032;-70
2022/06/18 01:50:28;;;;;;;8.20;5.50;;;21.20;99.90;;;;;;5104027;28;20684;-70
2022/06/18 01:53:09;;;;;;;7.63;5.18;;;21.20;99.90;;;;;;5102660;28;20043;-71
2022/06/18 01:55:44;;;;;;;7.13;5.10;;;21.10;99.90;;;;;;5082221;28;20044;-70
2022/06/18 01:58:41;;;;;;;9.73;5.53;;;21.10;99.90;;;;;;5088109;28;20130;-70
2022/06/18 02:01:16;;;;;;;6.35;5.65;;;21.10;99.90;;;;;;5094996;28;20043;-70
2022/06/18 02:03:42;;;;;;;9.25;5.53;;;21.00;99.90;;;;;;5107332;28;20032;-70
2022/06/18 02:06:08;;;;;;;7.82;5.55;;;21.00;99.90;;;;;;5105142;28;20081;-70
2022/06/18 02:08:35;;;;;;;11.10;5.43;;;20.90;99.90;;;;;;5071506;28;20148;-70
2022/06/18 02:11:04;;;;;;;9.83;5.10;;;20.90;99.90;;;;;;5101705;28;20077;-70
2022/06/18 02:13:35;;;;;;;6.80;5.50;;;20.90;99.90;;;;;;5105164;28;20388;-70
2022/06/18 02:16:05;;;;;;;8.63;5.38;;;20.80;99.90;;;;;;5086900;28;20050;-70
2022/06/18 02:18:33;;;;;;;7.13;5.70;;;20.80;99.90;;;;;;5107303;28;20047;-70
2022/06/18 02:21:05;;;;;;;9.50;5.63;;;20.80;99.90;;;;;;5081587;28;20051;-70
2022/06/18 02:23:31;;;;;;;7.28;5.53;;;20.80;99.90;;;;;;5087542;28;20769;-70
2022/06/18 02:25:57;;;;;;;8.75;6.22;;;20.80;99.90;;;;;;5084857;28;20717;-70
2022/06/18 02:28:36;;;;;;;8.70;6.32;;;20.80;99.90;;;;;;5089997;28;20710;-70
2022/06/18 02:31:03;;;;;;;10.32;6.30;;;20.80;99.90;;;;;;5075311;28;20520;-70
2022/06/18 02:33:43;;;;;;;10.43;6.78;;;20.70;99.90;;;;;;5097502;28;20043;-70
2022/06/18 02:36:17;;;;;;;10.07;6.10;;;20.70;99.90;;;;;;5106937;28;20038;-70
2022/06/18 02:38:44;;;;;;;10.85;6.80;;;20.70;99.90;;;;;;5105014;28;20126;-70
2022/06/18 02:41:10;;;;;;;9.18;6.78;;;20.60;99.90;;;;;;5069472;28;20071;-70
2022/06/18 02:43:38;;;;;;;9.02;6.40;;;20.60;99.90;;;;;;5094623;28;20046;-70
2022/06/18 02:46:04;;;;;;;7.68;6.90;;;20.60;99.90;;;;;;5103145;28;20035;-70
2022/06/18 02:48:32;;;;;;;11.93;7.22;;;20.60;99.90;;;;;;5107141;28;20047;-70
2022/06/18 02:51:00;;;;;;;8.45;6.78;;;20.50;99.90;;;;;;5099552;28;20040;-70
2022/06/18 02:53:27;;;;;;;8.02;6.60;;;20.50;99.90;;;;;;5107270;28;20062;-70
2022/06/18 02:55:56;;;;;;;10.73;7.30;;;20.60;99.90;;;;;;5105703;28;20119;-70
2022/06/18 02:58:31;;;;;;;9.35;7.80;;;20.50;99.90;;;;;;5082159;28;20048;-70
2022/06/18 03:01:02;;;;;;;11.57;7.35;;;20.50;99.90;;;;;;5102806;28;20054;-70
2022/06/18 03:03:35;;;;;;;8.63;7.22;;;20.50;99.90;;;;;;5090288;28;20046;-70
2022/06/18 03:06:01;;;;;;;9.43;6.90;;;20.50;99.90;;;;;;5077743;28;20083;-70
2022/06/18 03:08:29;;;;;;;12.82;7.70;;;20.50;99.90;;;;;;5099601;28;20434;-70
2022/06/18 03:13:39;;;;;;;10.85;7.97;;;20.40;99.90;;;;;;5092579;28;20119;-70
2022/06/18 03:16:08;;;;;;;10.95;8.02;;;20.40;99.90;;;;;;5097870;28;20173;-70
2022/06/18 03:18:39;;;;;;;12.23;8.23;;;20.40;99.90;;;;;;5091288;28;20032;-70
2022/06/18 03:21:35;;;;;;;11.82;8.20;;;20.40;99.90;;;;;;5091998;28;20040;-70
2022/06/18 03:24:01;;;;;;;9.15;8.00;;;20.40;99.90;;;;;;5105352;28;20494;-70
2022/06/18 03:26:27;;;;;;;13.18;8.63;;;20.30;99.90;;;;;;5086514;28;20525;-70
2022/06/18 03:28:53;;;;;;;10.73;8.52;;;20.30;99.90;;;;;;5109635;28;20050;-70
2022/06/18 03:31:25;;;;;;;10.18;8.40;;;20.30;99.90;;;;;;5089921;28;20043;-70
2022/06/18 03:33:51;;;;;;;13.98;8.93;;;20.30;99.90;;;;;;5101530;28;20080;-70
2022/06/18 03:36:18;;;;;;;13.80;7.78;;;20.20;99.90;;;;;;5095854;28;20048;-70
2022/06/18 03:38:46;;;;;;;12.15;9.02;;;20.20;99.90;;;;;;5105826;28;20059;-70
2022/06/18 03:41:13;;;;;;;12.38;8.73;;;20.20;99.90;;;;;;5100881;28;20043;-70
2022/06/18 03:43:39;;;;;;;12.73;8.95;;;20.20;99.90;;;;;;5088541;28;20130;-70
2022/06/18 03:46:08;;;;;;;11.75;8.70;;;20.20;99.90;;;;;;5104793;28;20122;-70
2022/06/18 03:48:36;;;;;;;11.98;8.65;;;20.20;99.90;;;;;;5105403;28;20036;-70
2022/06/18 03:51:02;;;;;;;13.23;9.13;;;20.20;99.90;;;;;;5077160;28;20051;-70
2022/06/18 03:53:28;;;;;;;12.20;9.35;;;20.20;99.90;;;;;;5075165;28;20440;-70
2022/06/18 03:55:53;;;;;;;9.90;8.90;;;20.20;99.90;;;;;;5098273;28;20070;-70
2022/06/18 03:58:20;;;;;;;12.27;9.27;;;20.20;99.90;;;;;;5081040;28;20040;-70
2022/06/18 04:00:45;;;;;;;10.05;8.60;;;20.20;99.90;;;;;;5107623;28;20079;-71
2022/06/18 04:03:11;;;;;;;11.98;9.30;;;20.20;99.90;;;;;;5110204;28;20132;-70
2022/06/18 04:05:40;;;;;;;16.08;9.57;;;20.30;99.90;;;;;;5107460;28;20043;-70
2022/06/18 04:08:05;;;;;;;13.30;9.52;;;20.30;99.90;;;;;;5093794;28;20063;-70
2022/06/18 04:10:31;;;;;;;14.23;9.95;;;20.30;99.90;;;;;;5097690;28;20707;-70
2022/06/18 04:12:56;;;;;;;13.13;9.32;;;20.30;99.90;;;;;;5106429;28;20441;-70
2022/06/18 04:15:22;;;;;;;11.73;9.45;;;20.30;99.90;;;;;;5086723;28;20055;-70
2022/06/18 04:17:48;;;;;;;14.32;10.00;;;20.40;99.90;;;;;;5074902;28;20070;-70
2022/06/18 04:20:26;;;;;;;13.27;10.15;;;20.40;99.90;;;;;;5108388;28;20127;-70
2022/06/18 04:22:52;;;;;;;12.57;10.27;;;20.40;99.90;;;;;;5089647;28;20044;-70
2022/06/18 04:25:18;;;;;;;11.73;10.00;;;20.40;99.90;;;;;;5073280;28;20044;-70
2022/06/18 04:27:44;;;;;;;12.18;10.18;;;20.40;99.90;;;;;;5107022;28;20085;-70
2022/06/18 04:30:11;;;;;;;14.98;10.60;;;20.50;99.90;;;;;;5104604;28;20526;-70
2022/06/18 04:32:37;;;;;;;16.70;10.80;;;20.50;99.90;;;;;;5102287;28;20051;-70
2022/06/18 04:35:08;;;;;;;17.02;10.73;;;20.50;99.90;;;;;;5087495;28;20048;-71
2022/06/18 04:37:33;;;;;;;16.27;10.85;;;20.50;99.90;;;;;;5089468;28;20047;-70
2022/06/18 04:39:59;;;;;;;14.52;11.15;;;20.60;99.90;;;;;;5076939;28;20062;-71
2022/06/18 04:42:26;;;;;;;15.88;11.27;;;20.60;99.90;;;;;;5086045;28;20035;-71
2022/06/18 04:44:52;;;;;;;12.07;10.77;;;20.60;99.90;;;;;;5101071;28;20326;-70
2022/06/18 04:47:18;;;;;;;16.00;12.00;;;20.60;99.90;;;;;;5084137;28;20123;-70
2022/06/18 04:49:44;;;;;;;13.13;11.57;;;20.60;99.90;;;;;;5097695;28;20134;-70
2022/06/18 04:52:12;;;;;;;15.27;11.98;;;20.60;99.90;;;;;;5085799;28;20395;-70
2022/06/18 04:54:38;;;;;;;13.35;11.50;;;20.60;99.90;;;;;;5071926;28;20044;-70
2022/06/18 04:57:04;;;;;;;14.18;11.82;;;20.60;99.90;;;;;;5079197;28;20131;-70
2022/06/18 04:59:30;;;;;;;20.50;12.25;;;20.60;99.90;;;;;;5095844;28;20130;-70
2022/06/18 05:02:07;;;;;;;14.10;12.07;;;20.70;99.90;;;;;;5076844;28;20043;-70
2022/06/18 05:04:33;;;;;;;18.70;13.00;;;20.70;99.90;;;;;;5107786;28;20483;-70
2022/06/18 05:06:58;;;;;;;14.75;13.07;;;20.60;99.90;;;;;;5106761;28;20039;-70
2022/06/18 05:09:24;;;;;;;17.00;13.43;;;20.70;99.90;;;;;;5079823;28;20494;-70
2022/06/18 05:11:50;;;;;;;18.05;13.65;;;20.70;99.90;;;;;;5106628;28;20591;-70
2022/06/18 05:14:16;;;;;;;18.95;13.65;;;20.70;99.90;;;;;;5108417;28;20530;-70
2022/06/18 05:16:43;;;;;;;23.17;14.20;;;20.70;99.90;;;;;;5104226;28;20061;-70
2022/06/18 05:19:23;;;;;;;17.70;13.98;;;20.80;99.90;;;;;;5106716;28;20051;-70
2022/06/18 05:21:49;;;;;;;16.73;13.00;;;20.80;99.90;;;;;;5104985;28;20414;-70
2022/06/18 05:24:15;;;;;;;16.65;13.70;;;20.80;99.90;;;;;;5093223;28;20052;-70
2022/06/18 05:26:45;;;;;;;18.67;13.38;;;20.80;99.90;;;;;;5084918;28;20046;-70
2022/06/18 05:29:11;;;;;;;17.10;13.68;;;20.90;99.90;;;;;;5086201;28;20506;-69
2022/06/18 05:31:37;;;;;;;16.67;13.30;;;20.90;99.90;;;;;;5104003;28;20047;-69
2022/06/18 05:34:03;;;;;;;16.85;13.68;;;20.90;99.90;;;;;;5087558;28;20046;-70
2022/06/18 05:36:30;;;;;;;17.55;14.63;;;20.90;99.90;;;;;;5107329;28;20059;-69
2022/06/18 05:38:57;;;;;;;17.80;14.13;;;21.00;99.90;;;;;;5107531;28;20031;-70
2022/06/18 05:41:23;;;;;;;;;;;21.00;99.90;;;;;;5103400;28;20047;-70
2022/06/18 05:43:49;;;;;;;21.65;14.68;;;21.00;99.90;;;;;;5109216;28;19924;-70
2022/06/18 05:46:15;;;;;;;20.73;14.30;;;21.00;99.90;;;;;;5106252;28;20921;-70
2022/06/18 05:48:41;;;;;;;19.17;14.88;;;21.10;99.90;;;;;;5104260;28;20035;-70
2022/06/18 05:51:07;;;;;;;17.23;14.80;;;21.10;99.90;;;;;;5100520;28;20040;-70
2022/06/18 05:53:32;;;;;;;18.77;13.57;;;21.10;99.90;;;;;;5076093;28;20471;-70
2022/06/18 05:55:58;;;;;;;20.00;14.13;;;21.20;99.90;;;;;;5090242;28;20134;-70
2022/06/18 05:58:24;;;;;;;21.90;14.77;;;21.20;99.90;;;;;;5098004;28;20116;-74
2022/06/18 06:00:50;;;;;;;18.05;14.45;;;21.30;99.90;;;;;;5090290;28;20087;-70
2022/06/18 06:03:16;;;;;;;21.35;15.18;;;21.30;99.90;;;;;;5100001;28;20533;-70
2022/06/18 06:05:41;;;;;;;18.75;15.50;;;21.30;99.90;;;;;;5104527;28;20050;-71
2022/06/18 06:08:10;;;;;;;21.83;15.13;;;21.30;99.90;;;;;;5100722;28;20075;-71
2022/06/18 06:13:20;;;;;;;20.35;14.18;;;21.40;99.90;;;;;;5090373;28;20139;-72
2022/06/18 06:15:46;;;;;;;18.45;14.45;;;21.40;99.90;;;;;;5095748;28;20122;-70
2022/06/18 06:18:14;;;;;;;21.45;14.65;;;21.40;99.90;;;;;;5089838;28;20568;-69
2022/06/18 06:20:43;;;;;;;19.85;14.77;;;21.50;99.90;;;;;;5097709;28;20065;-70
2022/06/18 06:23:09;;;;;;;22.63;14.85;;;21.60;99.90;;;;;;5086589;28;20120;-70
2022/06/18 06:25:36;;;;;;;20.80;13.98;;;21.60;99.90;;;;;;5106202;28;20058;-69
2022/06/18 06:28:03;;;;;;;18.63;13.98;;;21.70;99.90;;;;;;5104513;28;20036;-70
2022/06/18 06:30:28;;;;;;;22.07;14.70;;;21.70;99.90;;;;;;5094102;28;20048;-70
2022/06/18 06:32:54;;;;;;;20.73;14.10;;;21.70;99.90;;;;;;5087994;28;20056;-69
2022/06/18 06:35:20;;;;;;;23.10;14.13;;;21.80;99.90;;;;;;5076085;28;20535;-69
2022/06/18 06:37:46;;;;;;;20.77;14.45;;;21.80;99.90;;;;;;5086598;28;20136;-70
2022/06/18 06:40:13;;;;;;;22.35;14.73;;;21.90;99.90;;;;;;5091391;28;20036;-70
2022/06/18 06:42:47;;;;;;;;;;;21.90;99.90;;;;;;5073630;28;20424;-70
2022/06/18 06:45:18;;;;;;;21.27;14.88;;;21.90;99.90;;;;;;5103511;28;19934;-70
2022/06/18 06:47:45;;;;;;;18.73;14.80;;;21.90;99.90;;;;;;5092069;28;20039;-70
2022/06/18 06:50:13;;;;;;;19.67;14.70;;;22.00;99.90;;;;;;5100069;28;20525;-70
2022/06/18 06:52:39;;;;;;;22.67;14.82;;;22.00;99.90;;;;;;5079310;28;20264;-70
2022/06/18 06:57:57;;;;;;;18.20;14.02;;;22.00;99.90;;;;;;5098969;28;20071;-70
2022/06/18 07:00:22;;;;;;;23.23;14.02;;;22.10;99.90;;;;;;5107676;28;20074;-69
2022/06/18 07:02:48;;;;;;;22.95;14.55;;;22.20;99.90;;;;;;5109998;28;20039;-70
2022/06/18 07:05:14;;;;;;;20.60;14.45;;;22.20;99.90;;;;;;5109645;28;20088;-70
2022/06/18 07:07:40;;;;;;;18.05;14.57;;;22.20;99.90;;;;;;5105053;28;20114;-69
2022/06/18 07:10:08;;;;;;;21.77;14.77;;;22.30;99.90;;;;;;5093530;28;20075;-76
2022/06/18 07:12:35;;;;;;;20.90;14.32;;;22.30;99.90;;;;;;5088066;28;20047;-74
2022/06/18 07:15:00;;;;;;;23.05;13.93;;;22.40;99.90;;;;;;5101771;28;20043;-73
2022/06/18 07:17:28;;;;;;;17.27;14.70;;;22.40;99.90;;;;;;5109726;28;20479;-73
2022/06/18 07:19:53;;;;;;;20.25;14.40;;;22.60;99.90;;;;;;5104633;28;20043;-73
2022/06/18 07:22:19;;;;;;;18.95;13.32;;;22.60;99.90;;;;;;5095945;28;20032;-74
2022/06/18 07:24:45;;;;;;;19.83;13.60;;;22.70;99.90;;;;;;5108435;28;20056;-72
2022/06/18 07:27:10;;;;;;;21.33;12.48;;;22.70;99.90;;;;;;5110559;28;20039;-73
2022/06/18 07:29:36;;;;;;;18.75;13.80;;;22.80;99.90;;;;;;5080007;28;20047;-73
2022/06/18 07:32:13;;;;;;;22.58;12.18;;;22.80;99.90;;;;;;5078383;28;20505;-74
2022/06/18 07:34:39;;;;;;;17.60;12.20;;;22.90;99.90;;;;;;5091175;28;20421;-74
2022/06/18 07:37:04;;;;;;;19.23;12.10;;;22.90;99.90;;;;;;5075066;28;20202;-74
2022/06/18 07:39:30;;;;;;;17.67;12.27;;;23.00;99.90;;;;;;5075482;28;20074;-73
2022/06/18 07:41:56;;;;;;;19.73;14.00;;;23.00;99.90;;;;;;5093700;28;20084;-72
2022/06/18 07:44:25;;;;;;;20.00;13.18;;;23.10;99.90;;;;;;5108471;28;20104;-74
2022/06/18 07:46:52;;;;;;;23.02;12.90;;;23.10;99.90;;;;;;5106057;28;20052;-75
2022/06/18 07:49:18;;;;;;;;;;;23.20;99.90;;;;;;5112259;28;20036;-75
2022/06/18 07:51:45;;;;;;;18.50;11.90;;;23.20;99.90;;;;;;5102910;28;19927;-73
2022/06/18 07:54:15;;;;;;;17.90;11.30;;;23.20;99.90;;;;;;5084376;28;20044;-72
2022/06/18 07:56:41;;;;;;;16.08;10.05;;;23.30;99.90;;;;;;5088974;28;20044;-72
2022/06/18 07:59:07;;;;;;;19.88;10.68;;;23.30;99.90;;;;;;5102254;28;20036;-73
2022/06/18 08:01:33;;;;;;;20.90;10.02;;;23.40;99.90;;;;;;5100105;28;20043;-71
2022/06/18 08:03:58;;;;;;;16.77;9.98;;;23.50;99.90;;;;;;5102124;28;20038;-80
2022/06/18 08:06:24;;;;;;;17.10;10.07;;;23.50;99.90;;;;;;5111364;28;20115;-72
2022/06/18 08:08:50;;;;;;;13.90;8.20;;;23.60;99.90;;;;;;5110437;28;20073;-72
2022/06/18 08:11:18;;;;;;;19.20;9.75;;;23.70;99.90;;;;;;5105758;28;20055;-70
2022/06/18 08:13:44;;;;;;;17.48;9.52;;;23.80;99.90;;;;;;5110151;28;20130;-71
2022/06/18 08:16:13;;;;;;;16.00;9.43;;;23.80;99.90;;;;;;5092148;28;20272;-72
2022/06/18 08:18:39;;;;;;;13.88;9.02;;;23.90;99.90;;;;;;5107496;28;20643;-72
2022/06/18 08:21:11;;;;;;;14.57;7.60;;;24.00;99.90;;;;;;5102606;28;20040;-71
2022/06/18 08:23:38;;;;;;;13.95;7.75;;;24.10;99.90;;;;;;5106034;28;20043;-72
2022/06/18 08:26:06;;;;;;;14.35;7.88;;;24.20;99.90;;;;;;5106655;28;20047;-72
2022/06/18 08:28:32;;;;;;;16.13;7.82;;;24.20;99.90;;;;;;5084027;28;20479;-70
2022/06/18 08:30:59;;;;;;;15.38;7.50;;;24.20;99.90;;;;;;5082631;28;20060;-72
2022/06/18 08:33:25;;;;;;;16.92;8.30;;;24.30;99.90;;;;;;5110130;28;20051;-72
2022/06/18 08:35:51;;;;;;;16.67;8.07;;;24.30;99.90;;;;;;5104772;28;20069;-72
2022/06/18 08:38:17;;;;;;;14.15;7.57;;;24.40;99.90;;;;;;5109106;28;20051;-72
2022/06/18 08:40:45;;;;;;;13.73;7.35;;;24.50;99.90;;;;;;5104040;28;20034;-72
2022/06/18 08:43:39;;;;;;;13.70;7.40;;;24.60;99.90;;;;;;5107713;28;20043;-72
2022/06/18 08:46:26;;;;;;;15.82;7.60;;;24.70;99.90;;;;;;5080669;28;20042;-73
2022/06/18 08:49:09;;;;;;;17.02;8.20;;;24.70;99.90;;;;;;5088288;28;20043;-72
2022/06/18 08:51:44;;;;;;;13.75;7.53;;;24.80;99.90;;;;;;5080576;28;20048;-72
2022/06/18 08:54:15;;;;;;;11.80;6.60;;;24.90;99.90;;;;;;5097387;28;20775;-72
2022/06/18 08:56:45;;;;;;;11.32;6.18;;;24.90;99.90;;;;;;5105216;28;20482;-71
2022/06/18 08:59:19;;;;;;;15.50;6.53;;;25.00;99.90;;;;;;5102493;28;20051;-71
2022/06/18 09:01:57;;;;;;;14.50;6.07;;;25.00;99.90;;;;;;5105676;28;20111;-71
2022/06/18 09:04:39;;;;;;;14.75;6.22;;;25.00;99.90;;;;;;5107145;28;20067;-72
2022/06/18 09:07:24;;;;;;;13.55;5.80;;;25.00;99.90;;;;;;5106610;28;20112;-73
2022/06/18 09:10:25;;;;;;;13.48;6.28;;;25.10;99.90;;;;;;5086188;28;20143;-71
2022/06/18 09:12:58;;;;;;;11.38;5.63;;;25.10;99.90;;;;;;5082595;28;20507;-73
2022/06/18 09:15:36;;;;;;;10.57;4.65;;;25.10;99.90;;;;;;5069857;28;20052;-73
2022/06/18 09:18:23;;;;;;;10.93;4.68;;;25.10;99.90;;;;;;5088232;28;20048;-72
2022/06/18 09:20:54;;;;;;;12.50;4.47;;;25.20;99.90;;;;;;5069736;28;20051;-72
2022/06/18 09:23:27;;;;;;;8.65;2.70;;;25.20;99.90;;;;;;5081773;28;20047;-71
2022/06/18 09:25:55;;;;;;;10.52;4.50;;;25.20;96.90;;;;;;5070346;28;20051;-72
2022/06/18 09:28:33;;;;;;;10.32;5.00;;;25.30;99.90;;;;;;5091411;28;20471;-71
2022/06/18 09:31:14;;;;;;;8.95;5.00;;;25.40;99.90;;;;;;5097082;28;20271;-71
2022/06/18 09:33:45;;;;;;;8.15;3.95;;;25.50;99.90;;;;;;5101265;28;20065;-72
2022/06/18 09:36:20;;;;;;;9.75;4.10;;;25.60;99.90;;;;;;5091054;28;20487;-71
2022/06/18 09:38:52;;;;;;;9.10;4.47;;;25.60;99.90;;;;;;5074592;28;20043;-72
2022/06/18 09:41:24;;;;;;;9.90;4.07;;;25.60;99.90;;;;;;5094928;28;20118;-72
2022/06/18 09:43:59;;;;;;;8.65;4.30;;;25.70;99.90;;;;;;5095449;28;20059;-71
2022/06/18 09:46:41;;;;;;;6.90;3.80;;;25.70;99.90;;;;;;5095635;28;20051;-72
2022/06/18 09:49:07;;;;;;;9.77;4.38;;;25.80;99.90;;;;;;5105679;28;20040;-71
2022/06/18 09:51:37;;;;;;;5.63;3.30;;;25.80;99.90;;;;;;5095273;28;20106;-73
2022/06/18 09:54:07;;;;;;;9.30;3.95;;;25.80;99.90;;;;;;5095832;28;20052;-70
2022/06/18 09:56:54;;;;;;;10.00;4.30;;;25.80;99.90;;;;;;5107205;28;20044;-74
2022/06/18 09:59:43;;;;;;;5.60;3.47;;;25.70;99.90;;;;;;5088603;28;20080;-72
2022/06/18 10:02:18;;;;;;;11.85;4.70;;;25.70;99.90;;;;;;5088370;28;20134;-75
2022/06/18 10:07:32;;;;;;;9.50;4.00;;;25.80;99.90;;;;;;5078149;28;20670;-73
2022/06/18 10:10:14;;;;;;;11.13;4.10;;;25.90;99.90;;;;;;5108514;28;20097;-76
2022/06/18 10:12:53;;;;;;;11.85;4.07;;;25.90;99.90;;;;;;5100095;28;20042;-74
2022/06/18 10:15:20;;;;;;;13.80;5.20;;;25.90;99.90;;;;;;5074307;28;20662;-69
2022/06/18 10:18:07;;;;;;;15.77;5.25;;;26.00;99.90;;;;;;5100664;28;20116;-71
2022/06/18 10:20:39;;;;;;;13.07;5.20;;;26.10;99.90;;;;;;5091323;28;20048;-71
2022/06/18 10:23:36;;;;;;;11.45;4.90;;;26.10;99.90;;;;;;5096897;28;20096;-71
2022/06/18 10:26:26;;;;;;;9.80;4.68;;;26.20;99.90;;;;;;5094270;28;20428;-72
2022/06/18 10:29:13;;;;;;;9.38;5.20;;;26.20;99.90;;;;;;5096424;28;20040;-72
2022/06/18 10:31:49;;;;;;;;;;;26.30;99.90;;;;;;5102561;28;20456;-72
2022/06/18 10:34:36;;;;;;;10.60;5.25;;;26.30;99.90;;;;;;5089961;28;19927;-72
2022/06/18 10:37:17;;;;;;;10.45;4.85;;;26.40;99.90;;;;;;5069082;28;20051;-72
2022/06/18 10:39:46;;;;;;;10.52;5.38;;;26.40;99.90;;;;;;5097483;28;20051;-72
2022/06/18 10:42:46;;;;;;;12.52;5.00;;;26.50;99.90;;;;;;5097866;28;20136;-73
2022/06/18 10:45:17;;;;;;;10.63;5.18;;;26.60;99.90;;;;;;5087255;28;20055;-71
2022/06/18 10:47:46;;;;;;;10.68;4.28;;;26.60;99.90;;;;;;5101985;28;20398;-72
2022/06/18 10:50:16;;;;;;;12.50;3.63;;;26.70;99.90;;;;;;5089449;28;20074;-70
2022/06/18 10:52:42;;;;;;;11.80;3.78;;;26.70;99.90;;;;;;5093295;28;20165;-71
2022/06/18 10:55:11;;;;;;;9.80;4.53;;;26.80;99.90;;;;;;5091735;28;20044;-71
2022/06/18 10:57:37;;;;;;;7.63;4.45;;;26.90;99.90;;;;;;5091456;28;20090;-72
2022/06/18 11:00:26;;;;;;;10.60;4.95;;;26.90;99.90;;;;;;5089256;28;20695;-72
2022/06/18 11:02:59;;;;;;;10.40;5.20;;;27.00;99.90;;;;;;5079242;28;20509;-72
2022/06/18 11:05:43;;;;;;;9.07;5.15;;;27.00;99.90;;;;;;5087108;28;20070;-71
2022/06/18 11:08:29;;;;;;;7.93;4.88;;;27.10;99.90;;;;;;5097955;28;20043;-71
2022/06/18 11:11:04;;;;;;;10.23;5.00;;;27.10;99.90;;;;;;5101536;28;20052;-72
2022/06/18 11:13:42;;;;;;;11.85;4.85;;;27.20;99.90;;;;;;5090458;28;20044;-71
2022/06/18 11:16:25;;;;;;;8.45;5.18;;;27.20;99.90;;;;;;5094003;28;20138;-71
2022/06/18 11:19:17;;;;;;;18.95;5.07;;;27.30;99.90;;;;;;5089162;28;20612;-72
2022/06/18 11:21:43;;;;;;;12.13;4.80;;;27.40;99.60;;;;;;5098498;28;20066;-71
2022/06/18 11:24:13;;;;;;;9.63;4.77;;;27.40;99.90;;;;;;5094025;28;20417;-71
2022/06/18 11:26:50;;;;;;;11.00;4.60;;;27.50;99.90;;;;;;5077482;28;20036;-71
2022/06/18 11:29:32;;;;;;;11.10;4.57;;;27.60;99.90;;;;;;5095482;28;20131;-71
2022/06/18 11:32:01;;;;;;;7.93;4.15;;;27.70;99.90;;;;;;5100755;28;20104;-71
2022/06/18 11:34:33;;;;;;;14.23;4.20;;;27.80;99.90;;;;;;5105278;28;20032;-69
2022/06/18 11:36:59;;;;;;;9.43;4.03;;;28.00;99.90;;;;;;5087863;28;20044;-70
2022/06/18 11:39:39;;;;;;;12.65;4.28;;;28.10;99.90;;;;;;5091705;28;20060;-69
2022/06/18 11:42:20;;;;;;;10.77;4.38;;;28.10;99.10;;;;;;5078156;28;20048;-71
2022/06/18 11:45:05;;;;;;;12.27;4.40;;;28.10;98.60;;;;;;5091111;28;20428;-71
2022/06/18 11:47:41;;;;;;;9.40;4.07;;;28.00;98.20;;;;;;5098236;28;20160;-71
2022/06/18 11:50:23;;;;;;;10.77;4.67;;;28.00;99.60;;;;;;5108301;28;20028;-71
2022/06/18 11:53:09;;;;;;;11.98;4.50;;;28.10;99.90;;;;;;5088398;28;20055;-72
2022/06/18 11:55:37;;;;;;;8.00;3.97;;;28.30;99.60;;;;;;5107431;28;20047;-72
2022/06/18 11:58:27;;;;;;;9.68;4.50;;;28.40;99.90;;;;;;5091941;28;20115;-72
2022/06/18 12:01:13;;;;;;;10.70;4.03;;;28.50;99.00;;;;;;5090191;28;20035;-71
2022/06/18 12:03:46;;;;;;;7.90;3.70;;;28.60;98.90;;;;;;5096295;28;20096;-71
2022/06/18 12:06:31;;;;;;;12.50;4.47;;;28.60;98.20;;;;;;5106720;28;20040;-71
2022/06/18 12:08:57;;;;;;;8.80;3.88;;;28.60;97.70;;;;;;5100369;28;20058;-71
2022/06/18 12:11:47;;;;;;;12.50;4.57;;;28.60;96.90;;;;;;5106888;28;20542;-72
2022/06/18 12:14:23;;;;;;;11.10;4.07;;;28.60;94.90;;;;;;5104931;28;20441;-70
2022/06/18 12:17:21;;;;;;;12.40;4.22;;;28.50;97.50;;;;;;5103235;28;20044;-72
2022/06/18 12:20:00;;;;;;;11.02;3.80;;;28.50;93.50;;;;;;5078666;28;20055;-72
2022/06/18 12:22:36;;;;;;;10.05;4.28;;;28.50;95.00;;;;;;5077751;28;20059;-71
2022/06/18 12:25:29;;;;;;;12.05;3.97;;;28.50;95.40;;;;;;5074391;28;20036;-71
2022/06/18 12:28:15;;;;;;;5.80;3.72;;;28.50;97.80;;;;;;5099567;28;20135;-71
2022/06/18 12:30:55;;;;;;;9.23;4.25;;;28.60;96.70;;;;;;5109486;28;20077;-71
2022/06/18 12:33:41;;;;;;;11.23;4.30;;;28.60;97.90;;;;;;5107319;28;20039;-71
2022/06/18 12:36:41;;;;;;;10.57;3.92;;;28.60;99.20;;;;;;5108849;28;20047;-70
2022/06/18 12:39:25;;;;;;;11.25;4.75;;;28.80;97.90;;;;;;5090022;28;20266;-70
2022/06/18 12:41:59;;;;;;;18.27;4.75;;;28.90;98.50;;;;;;5077849;28;20123;-69
2022/06/18 12:44:47;;;;;;;6.97;4.10;;;29.00;98.80;;;;;;5100651;28;20089;-71
2022/06/18 12:47:32;;;;;;;10.85;4.00;;;29.00;98.40;;;;;;5097268;28;20047;-71
2022/06/18 12:50:29;;;;;;;9.85;4.07;;;29.10;97.80;;;;;;5093931;28;20050;-71
2022/06/18 12:53:07;;;;;;;9.65;4.35;;;29.10;94.00;;;;;;5103644;28;20044;-71
2022/06/18 12:55:47;;;;;;;11.00;3.95;;;29.00;95.60;;;;;;5089965;28;20055;-71
2022/06/18 12:58:44;;;;;;;6.78;3.90;;;29.00;96.70;;;;;;5073042;28;20048;-71
2022/06/18 13:01:21;;;;;;;15.65;4.10;;;29.10;97.30;;;;;;5107497;28;20046;-71
2022/06/18 13:04:10;;;;;;;13.65;4.00;;;29.10;98.00;;;;;;5109159;28;20054;-72
2022/06/18 13:07:07;;;;;;;7.18;4.10;;;29.10;97.20;;;;;;5108289;28;20173;-72
2022/06/18 13:09:43;;;;;;;10.40;4.13;;;29.10;95.80;;;;;;5045831;28;20063;-72
2022/06/18 13:12:18;;;;;;;8.75;3.40;;;29.10;97.80;;;;;;5104844;28;20393;-72
2022/06/18 13:14:53;;;;;;;8.63;3.67;;;29.00;97.90;;;;;;5096580;28;20040;-72